Time;durP1;ratioP1;P1;durP2;ratioP2;P2;SDS_P1;SDS_P2;PMS_P1;PMS_P2;Temp;Humidity;BMP_temperature;BMP_pressure;BME280_temperature;BME280_humidity;BME280_pressure;Samples;Min_cycle;Max_cycle;Signal;HPM_P1;HPM_P2
2023/03/29 00:02:18;;;;;;;5.37;1.70;;;22.80;80.00;;;;;;5073710;28;20673;-68
2023/03/29 00:04:46;;;;;;;3.50;1.50;;;22.70;78.90;;;;;;5071664;28;20179;-74
2023/03/29 00:07:13;;;;;;;5.03;1.77;;;22.80;78.90;;;;;;5071815;28;20245;-66
2023/03/29 00:09:41;;;;;;;2.63;1.70;;;22.80;79.00;;;;;;5073026;28;20203;-64
2023/03/29 00:12:10;;;;;;;3.23;1.53;;;22.90;78.90;;;;;;5072755;28;20180;-64
2023/03/29 00:14:37;;;;;;;2.80;1.80;;;23.00;78.90;;;;;;5072708;28;20175;-64
2023/03/29 00:17:05;;;;;;;3.93;1.50;;;23.00;78.60;;;;;;5069583;28;20312;-66
2023/03/29 00:19:35;;;;;;;4.03;1.60;;;23.00;78.30;;;;;;5065126;28;20598;-66
2023/03/29 00:22:05;;;;;;;4.97;1.70;;;23.10;78.80;;;;;;5062038;28;20254;-65
2023/03/29 00:24:33;;;;;;;5.23;1.80;;;23.10;78.80;;;;;;5056078;28;20232;-64
2023/03/29 00:27:01;;;;;;;4.30;1.90;;;23.10;78.40;;;;;;5058907;28;20179;-66
2023/03/29 00:29:28;;;;;;;1.60;1.50;;;23.10;78.40;;;;;;5068395;28;20199;-65
2023/03/29 00:31:56;;;;;;;4.17;1.80;;;23.10;78.40;;;;;;5070121;28;20213;-64
2023/03/29 00:34:25;;;;;;;2.20;1.70;;;23.10;79.00;;;;;;5071553;28;20260;-67
2023/03/29 00:36:56;;;;;;;4.40;1.77;;;23.10;78.20;;;;;;5080491;28;20679;-64
2023/03/29 00:39:26;;;;;;;3.77;1.60;;;23.10;77.70;;;;;;5073583;28;20222;-64
2023/03/29 00:41:54;;;;;;;4.97;1.83;;;23.20;78.40;;;;;;5077797;28;20269;-65
2023/03/29 00:44:54;;;;;;;2.17;1.80;;;23.30;78.30;;;;;;5070358;28;20187;-66
2023/03/29 00:47:40;;;;;;;4.17;2.03;;;23.40;79.30;;;;;;5082526;28;20205;-66
2023/03/29 00:50:30;;;;;;;2.90;1.93;;;23.60;79.10;;;;;;5068468;28;20536;-66
2023/03/29 00:53:01;;;;;;;3.00;1.80;;;23.70;78.80;;;;;;5064729;28;20175;-74
2023/03/29 00:55:42;;;;;;;5.03;1.80;;;23.70;77.90;;;;;;5071907;28;20262;-74
2023/03/29 00:58:14;;;;;;;4.07;1.60;;;23.70;77.90;;;;;;5072413;28;20220;-74
2023/03/29 01:01:18;;;;;;;3.63;1.30;;;23.60;76.20;;;;;;5081418;28;20179;-75
2023/03/29 01:03:52;;;;;;;1.80;1.30;;;23.70;76.50;;;;;;5069709;28;20183;-69
2023/03/29 01:06:23;;;;;;;15.23;1.87;;;23.70;74.40;;;;;;5073668;28;20538;-73
2023/03/29 01:08:55;;;;;;;2.57;1.20;;;23.90;75.00;;;;;;5066191;28;20215;-65
2023/03/29 01:11:34;;;;;;;8.57;1.70;;;24.00;74.50;;;;;;5059075;28;20579;-66
2023/03/29 01:14:25;;;;;;;3.10;1.90;;;24.20;74.70;;;;;;5071215;28;20191;-69
2023/03/29 01:16:53;;;;;;;4.60;1.87;;;24.30;74.50;;;;;;5061402;28;20188;-66
2023/03/29 01:19:26;;;;;;;4.17;1.77;;;24.40;74.70;;;;;;5071890;28;20179;-68
2023/03/29 01:22:00;;;;;;;3.40;1.90;;;24.50;74.30;;;;;;5071706;28;20232;-68
2023/03/29 01:25:04;;;;;;;3.27;1.50;;;24.70;74.30;;;;;;5071999;28;20550;-63
2023/03/29 01:27:52;;;;;;;7.63;1.80;;;24.80;74.40;;;;;;5071795;28;20175;-65
2023/03/29 01:30:33;;;;;;;3.77;1.60;;;24.70;73.50;;;;;;5059284;28;20260;-68
2023/03/29 01:33:20;;;;;;;1.53;1.30;;;24.80;73.00;;;;;;5071810;28;20175;-66
2023/03/29 01:36:10;;;;;;;3.40;1.47;;;25.10;72.70;;;;;;5071581;28;20211;-67
2023/03/29 01:38:51;;;;;;;3.07;1.40;;;25.40;71.80;;;;;;5063797;28;20187;-67
2023/03/29 01:41:19;;;;;;;1.70;1.50;;;26.00;70.90;;;;;;5073035;28;20184;-70
2023/03/29 01:43:55;;;;;;;5.40;1.43;;;26.30;68.70;;;;;;5073870;28;20207;-69
2023/03/29 01:46:32;;;;;;;2.50;1.37;;;26.50;68.10;;;;;;5074754;28;20201;-65
2023/03/29 01:49:11;;;;;;;1.67;0.80;;;26.90;65.60;;;;;;5074241;28;20179;-67
2023/03/29 01:51:57;;;;;;;2.90;1.30;;;27.10;62.30;;;;;;5074928;28;20709;-65
2023/03/29 01:54:39;;;;;;;2.07;1.30;;;27.00;61.50;;;;;;5066726;28;20733;-68
2023/03/29 01:57:09;;;;;;;1.00;0.87;;;27.30;59.50;;;;;;5069643;28;20638;-66
2023/03/29 01:59:42;;;;;;;1.37;0.97;;;27.60;58.50;;;;;;5071635;28;20705;-68
2023/03/29 02:02:13;;;;;;;1.47;1.00;;;27.30;58.20;;;;;;5060772;28;20190;-67
2023/03/29 02:04:49;;;;;;;4.13;1.47;;;27.30;59.00;;;;;;5074523;28;20203;-67
2023/03/29 02:07:24;;;;;;;1.67;1.20;;;26.90;59.80;;;;;;5073372;28;20297;-65
2023/03/29 02:09:53;;;;;;;5.10;1.30;;;26.50;60.80;;;;;;5074175;28;20218;-64
2023/03/29 02:12:21;;;;;;;2.43;1.63;;;26.30;62.10;;;;;;5073363;28;20187;-67
2023/03/29 02:14:48;;;;;;;2.27;1.40;;;26.20;63.20;;;;;;5074241;28;20194;-65
2023/03/29 02:17:24;;;;;;;1.90;1.23;;;26.00;63.60;;;;;;5074744;28;20618;-67
2023/03/29 02:20:21;;;;;;;1.67;1.50;;;25.90;64.70;;;;;;5074177;28;20178;-67
2023/03/29 02:22:48;;;;;;;1.47;0.93;;;25.80;64.70;;;;;;5075224;28;20258;-68
2023/03/29 02:25:16;;;;;;;7.37;1.33;;;25.70;65.10;;;;;;5074012;28;20179;-67
2023/03/29 02:27:44;;;;;;;2.43;1.00;;;25.80;65.90;;;;;;5067207;28;20262;-66
2023/03/29 02:30:15;;;;;;;1.73;1.40;;;25.60;65.80;;;;;;5076938;28;20225;-66
2023/03/29 02:32:58;;;;;;;3.67;1.80;;;25.70;66.60;;;;;;5069711;28;20195;-68
2023/03/29 02:35:39;;;;;;;3.10;1.57;;;25.60;68.90;;;;;;5062030;28;20187;-65
2023/03/29 02:38:10;;;;;;;2.70;1.40;;;25.40;70.20;;;;;;5061169;28;20195;-63
2023/03/29 02:40:41;;;;;;;1.57;1.47;;;25.20;70.00;;;;;;5072086;28;20175;-66
2023/03/29 02:43:11;;;;;;;2.80;1.13;;;25.10;71.30;;;;;;5071201;28;20179;-66
2023/03/29 02:45:40;;;;;;;2.80;1.50;;;25.10;71.40;;;;;;5071916;28;20209;-65
2023/03/29 02:48:11;;;;;;;2.70;1.63;;;25.20;70.70;;;;;;5073160;28;20175;-64
2023/03/29 02:50:41;;;;;;;2.37;1.17;;;25.30;68.60;;;;;;5072685;28;20224;-66
2023/03/29 02:53:34;;;;;;;2.77;1.67;;;25.80;66.10;;;;;;5072568;28;20166;-65
2023/03/29 02:56:03;;;;;;;2.80;1.60;;;26.10;65.50;;;;;;5073653;28;20172;-65
2023/03/29 02:58:30;;;;;;;4.13;1.50;;;26.20;66.40;;;;;;5073817;28;20210;-65
2023/03/29 03:01:00;;;;;;;4.47;2.20;;;26.30;66.30;;;;;;5070592;28;20191;-65
2023/03/29 03:03:28;;;;;;;1.50;1.40;;;26.30;65.80;;;;;;5073345;28;20254;-66
2023/03/29 03:05:55;;;;;;;1.47;1.10;;;26.10;67.00;;;;;;5073485;28;20183;-67
2023/03/29 03:08:22;;;;;;;4.67;1.20;;;26.30;65.60;;;;;;5072148;28;20238;-66
2023/03/29 03:10:50;;;;;;;1.93;1.20;;;26.80;64.30;;;;;;5071981;28;20243;-67
2023/03/29 03:13:17;;;;;;;1.67;1.30;;;27.30;63.70;;;;;;5073253;28;20677;-67
2023/03/29 03:15:47;;;;;;;6.30;1.27;;;27.60;61.90;;;;;;5069827;28;20184;-68
2023/03/29 03:18:16;;;;;;;2.20;1.40;;;27.60;62.70;;;;;;5071621;28;20179;-65
2023/03/29 03:20:49;;;;;;;2.13;1.40;;;27.90;62.20;;;;;;5065079;28;20201;-64
2023/03/29 03:23:19;;;;;;;3.57;1.33;;;27.80;61.70;;;;;;5068634;28;20174;-65
2023/03/29 03:25:48;;;;;;;4.10;1.37;;;27.20;63.90;;;;;;5070078;28;20731;-68
2023/03/29 03:28:15;;;;;;;2.37;1.10;;;26.80;64.80;;;;;;5071192;28;20306;-66
2023/03/29 03:30:42;;;;;;;1.63;1.30;;;26.70;65.90;;;;;;5068350;28;20218;-64
2023/03/29 03:33:10;;;;;;;4.00;1.60;;;26.30;67.40;;;;;;5072008;28;20186;-66
2023/03/29 03:35:38;;;;;;;3.87;1.43;;;25.80;69.70;;;;;;5066541;28;20198;-67
2023/03/29 03:38:06;;;;;;;4.13;1.37;;;25.80;70.40;;;;;;5070542;28;20230;-66
2023/03/29 03:40:33;;;;;;;1.80;1.27;;;25.60;68.60;;;;;;5070564;28;20653;-72
2023/03/29 03:43:01;;;;;;;1.67;1.10;;;25.70;69.80;;;;;;5068038;28;20179;-67
2023/03/29 03:45:28;;;;;;;3.27;1.20;;;25.50;67.50;;;;;;5064355;28;20273;-65
2023/03/29 03:47:56;;;;;;;1.20;1.10;;;25.60;66.60;;;;;;5070744;28;20179;-66
2023/03/29 03:50:23;;;;;;;1.20;1.10;;;25.60;65.20;;;;;;5064888;28;20208;-66
2023/03/29 03:52:50;;;;;;;1.40;1.10;;;25.70;66.10;;;;;;5071525;28;20190;-65
2023/03/29 03:55:18;;;;;;;1.43;1.00;;;25.90;65.70;;;;;;5072005;28;20835;-66
2023/03/29 03:57:46;;;;;;;2.50;1.50;;;25.90;65.90;;;;;;5060546;28;20175;-72
2023/03/29 04:00:20;;;;;;;3.13;1.10;;;25.80;66.20;;;;;;5072568;28;20218;-66
2023/03/29 04:02:48;;;;;;;1.37;0.97;;;26.00;66.20;;;;;;5071022;28;20570;-70
2023/03/29 04:05:16;;;;;;;1.67;1.10;;;26.30;64.40;;;;;;5071933;28;20183;-68
2023/03/29 04:07:43;;;;;;;2.77;0.87;;;27.30;61.20;;;;;;5068496;28;20238;-70
2023/03/29 04:10:11;;;;;;;0.97;0.70;;;27.90;59.00;;;;;;5070929;28;20263;-69
2023/03/29 04:12:38;;;;;;;1.30;0.63;;;28.30;56.50;;;;;;5072472;28;20630;-67
2023/03/29 04:15:07;;;;;;;1.30;0.50;;;28.00;54.40;;;;;;5072407;28;20227;-69
2023/03/29 04:17:35;;;;;;;1.13;0.73;;;27.30;53.90;;;;;;5070690;28;20187;-67
2023/03/29 04:20:09;;;;;;;0.70;0.47;;;27.80;53.70;;;;;;5061047;28;20183;-68
2023/03/29 04:22:36;;;;;;;0.70;0.60;;;28.10;51.90;;;;;;5063923;28;20179;-66
2023/03/29 04:25:05;;;;;;;3.63;0.80;;;28.50;51.80;;;;;;5072524;28;20175;-66
2023/03/29 04:27:32;;;;;;;1.33;0.60;;;28.60;51.10;;;;;;5071153;28;20187;-68
2023/03/29 04:30:00;;;;;;;0.50;0.50;;;28.60;50.40;;;;;;5067743;28;20689;-67
2023/03/29 04:32:27;;;;;;;2.43;0.70;;;28.80;50.40;;;;;;5063254;28;20703;-68
2023/03/29 04:34:55;;;;;;;0.97;0.57;;;29.10;49.50;;;;;;5072259;28;20179;-66
2023/03/29 04:37:22;;;;;;;2.30;0.65;;;29.50;48.00;;;;;;5069682;28;20194;-70
2023/03/29 04:39:51;;;;;;;0.50;0.50;;;29.60;47.40;;;;;;5072449;28;20626;-67
2023/03/29 04:42:18;;;;;;;1.85;0.52;;;29.50;47.30;;;;;;5071451;28;20176;-66
2023/03/29 04:44:46;;;;;;;2.83;0.60;;;29.60;48.40;;;;;;5069978;28;20546;-73
2023/03/29 04:47:13;;;;;;;0.70;0.47;;;29.50;46.80;;;;;;5071858;28;20231;-66
2023/03/29 04:49:41;;;;;;;0.90;0.55;;;29.60;47.00;;;;;;5071834;28;20256;-67
2023/03/29 04:52:08;;;;;;;0.40;0.40;;;29.90;46.90;;;;;;5065897;28;20590;-68
2023/03/29 04:54:36;;;;;;;0.50;0.50;;;30.10;45.20;;;;;;5059467;28;20172;-66
2023/03/29 04:57:07;;;;;;;0.63;0.60;;;30.00;45.80;;;;;;5069044;28;20179;-66
2023/03/29 04:59:35;;;;;;;0.63;0.50;;;30.00;47.00;;;;;;5071820;28;20183;-70
2023/03/29 05:02:03;;;;;;;2.75;0.63;;;30.10;45.50;;;;;;5070844;28;20319;-71
2023/03/29 05:04:31;;;;;;;1.10;0.50;;;30.30;46.00;;;;;;5070720;28;20187;-67
2023/03/29 05:07:00;;;;;;;2.97;0.63;;;30.90;44.80;;;;;;5070084;28;20657;-68
2023/03/29 05:09:28;;;;;;;2.25;0.50;;;31.10;44.60;;;;;;5059449;28;20187;-68
2023/03/29 05:11:55;;;;;;;2.95;0.65;;;31.60;43.20;;;;;;5071528;28;20300;-67
2023/03/29 05:14:23;;;;;;;3.22;0.68;;;31.50;42.80;;;;;;5072577;28;20186;-67
2023/03/29 05:16:50;;;;;;;0.77;0.63;;;31.40;43.20;;;;;;5075980;28;20171;-67
2023/03/29 05:19:20;;;;;;;2.28;0.77;;;31.00;43.40;;;;;;5075810;28;20572;-69
2023/03/29 05:21:51;;;;;;;0.98;0.88;;;31.70;42.70;;;;;;5074717;28;20163;-66
2023/03/29 05:24:20;;;;;;;1.70;0.70;;;31.70;42.00;;;;;;5075820;28;20184;-67
2023/03/29 05:26:50;;;;;;;0.93;0.50;;;31.90;42.20;;;;;;5074863;28;20171;-74
2023/03/29 05:29:18;;;;;;;2.40;0.75;;;31.80;42.30;;;;;;5075700;28;20171;-69
2023/03/29 05:31:45;;;;;;;2.08;0.60;;;31.80;42.10;;;;;;5065007;28;20251;-67
2023/03/29 05:34:13;;;;;;;1.35;0.60;;;31.60;42.40;;;;;;5073083;28;20727;-74
2023/03/29 05:36:41;;;;;;;1.45;0.60;;;31.90;41.40;;;;;;5075704;28;20197;-69
2023/03/29 05:39:09;;;;;;;0.70;0.60;;;30.30;43.90;;;;;;5076221;28;20197;-70
2023/03/29 05:41:37;;;;;;;0.65;0.47;;;29.90;45.40;;;;;;5073801;28;20289;-66
2023/03/29 05:44:05;;;;;;;2.20;0.43;;;29.90;44.70;;;;;;5069971;28;20205;-67
2023/03/29 05:46:32;;;;;;;1.27;0.60;;;30.60;43.90;;;;;;5064361;28;20263;-66
2023/03/29 05:49:00;;;;;;;0.63;0.63;;;30.30;44.90;;;;;;5074349;28;20187;-67
2023/03/29 05:51:28;;;;;;;0.70;0.60;;;29.70;45.30;;;;;;5075202;28;20616;-68
2023/03/29 05:53:55;;;;;;;2.53;0.50;;;29.10;46.80;;;;;;5069597;28;20179;-69
2023/03/29 05:56:23;;;;;;;0.90;0.53;;;28.60;46.70;;;;;;5055190;28;20559;-70
2023/03/29 05:58:52;;;;;;;1.37;0.50;;;29.00;45.60;;;;;;5073531;28;20282;-67
2023/03/29 06:01:21;;;;;;;1.65;0.45;;;30.50;43.80;;;;;;5066385;28;20219;-71
2023/03/29 06:03:48;;;;;;;1.65;0.50;;;32.00;40.20;;;;;;5070024;28;20234;-68
2023/03/29 06:06:16;;;;;;;1.20;0.50;;;32.70;38.60;;;;;;5074299;28;20180;-67
2023/03/29 06:08:45;;;;;;;2.22;0.57;;;33.00;36.30;;;;;;5071387;28;20227;-67
2023/03/29 06:11:13;;;;;;;0.85;0.40;;;32.10;35.20;;;;;;5068425;28;20287;-69
2023/03/29 06:13:41;;;;;;;1.65;0.60;;;31.30;36.90;;;;;;5074524;28;20585;-67
2023/03/29 06:16:09;;;;;;;1.25;0.50;;;32.00;36.30;;;;;;5074539;28;20229;-65
2023/03/29 06:18:38;;;;;;;0.50;0.50;;;31.60;35.70;;;;;;5073550;28;20171;-67
2023/03/29 06:21:07;;;;;;;0.77;0.50;;;31.50;36.10;;;;;;5075184;28;20175;-67
2023/03/29 06:23:35;;;;;;;0.50;0.50;;;31.70;36.00;;;;;;5073759;28;20254;-68
2023/03/29 06:26:04;;;;;;;5.18;0.60;;;31.70;35.50;;;;;;5073708;28;20199;-67
2023/03/29 06:28:31;;;;;;;0.80;0.50;;;29.90;37.60;;;;;;5074553;28;20270;-65
2023/03/29 06:31:00;;;;;;;0.80;0.60;;;29.00;39.90;;;;;;5060918;28;20697;-70
2023/03/29 06:33:29;;;;;;;2.33;0.60;;;28.30;39.80;;;;;;5061228;28;20183;-68
2023/03/29 06:35:57;;;;;;;0.30;0.30;;;27.90;40.50;;;;;;5078295;28;20206;-72
2023/03/29 06:38:27;;;;;;;1.53;0.63;;;27.70;40.80;;;;;;5073401;28;20191;-69
2023/03/29 06:41:07;;;;;;;0.50;0.43;;;27.40;40.70;;;;;;5072002;28;20191;-70
2023/03/29 06:43:35;;;;;;;0.70;0.50;;;27.10;41.10;;;;;;5106604;28;20166;-66
2023/03/29 06:46:03;;;;;;;1.03;0.60;;;27.00;42.20;;;;;;5074113;28;20183;-65
2023/03/29 06:48:30;;;;;;;0.50;0.50;;;26.90;43.30;;;;;;5068754;28;20649;-68
2023/03/29 06:50:57;;;;;;;0.37;0.33;;;27.60;41.40;;;;;;5070840;28;20242;-64
2023/03/29 06:53:26;;;;;;;0.97;0.50;;;28.00;40.00;;;;;;5073199;28;20176;-65
2023/03/29 06:55:54;;;;;;;1.77;0.50;;;28.40;39.00;;;;;;5073902;28;20179;-67
2023/03/29 06:58:21;;;;;;;0.30;0.30;;;28.10;39.50;;;;;;5071030;28;20270;-65
2023/03/29 07:00:49;;;;;;;1.27;0.60;;;27.30;41.60;;;;;;5078164;28;20188;-68
2023/03/29 07:03:22;;;;;;;2.83;0.40;;;26.60;43.00;;;;;;5070004;28;20170;-68
2023/03/29 07:05:50;;;;;;;0.67;0.50;;;26.20;44.20;;;;;;5073355;28;20313;-69
2023/03/29 07:08:21;;;;;;;0.97;0.50;;;26.00;44.80;;;;;;5072335;28;20223;-68
2023/03/29 07:10:52;;;;;;;1.33;0.50;;;26.40;44.50;;;;;;5072815;28;20699;-65
2023/03/29 07:13:19;;;;;;;0.40;0.40;;;27.10;42.90;;;;;;5070541;28;20191;-65
2023/03/29 07:15:46;;;;;;;0.83;0.57;;;27.60;42.20;;;;;;5057566;28;20190;-65
2023/03/29 07:18:14;;;;;;;0.77;0.43;;;27.60;41.70;;;;;;5070626;28;20229;-65
2023/03/29 07:20:41;;;;;;;0.47;0.47;;;27.90;41.60;;;;;;5072626;28;20642;-69
2023/03/29 07:23:10;;;;;;;1.13;0.57;;;27.80;42.10;;;;;;5073530;28;20197;-69
2023/03/29 07:25:38;;;;;;;2.27;0.70;;;28.00;41.80;;;;;;5073422;28;20271;-66
2023/03/29 07:28:05;;;;;;;1.03;0.60;;;28.10;41.50;;;;;;5073597;28;20240;-66
2023/03/29 07:30:33;;;;;;;1.33;0.50;;;27.30;43.10;;;;;;5073478;28;20242;-72
2023/03/29 07:33:00;;;;;;;1.47;0.57;;;26.30;44.90;;;;;;5071555;28;20185;-70
2023/03/29 07:35:29;;;;;;;0.70;0.60;;;25.80;46.00;;;;;;5072192;28;20601;-66
2023/03/29 07:38:02;;;;;;;2.73;0.90;;;25.50;47.40;;;;;;5073072;28;20536;-66
2023/03/29 07:40:30;;;;;;;2.23;0.67;;;25.30;48.20;;;;;;5073240;28;20276;-66
2023/03/29 07:42:57;;;;;;;1.70;0.70;;;25.10;48.50;;;;;;5067073;28;20738;-65
2023/03/29 07:45:30;;;;;;;0.60;0.50;;;24.90;49.30;;;;;;5073675;28;20182;-66
2023/03/29 07:47:58;;;;;;;0.60;0.50;;;24.70;49.70;;;;;;5065128;28;20693;-65
2023/03/29 07:50:26;;;;;;;0.70;0.57;;;24.60;50.10;;;;;;5072246;28;20207;-65
2023/03/29 07:52:55;;;;;;;1.97;0.70;;;24.50;50.70;;;;;;5069368;28;20199;-66
2023/03/29 07:55:23;;;;;;;1.10;0.67;;;24.40;51.00;;;;;;5063142;28;20707;-65
2023/03/29 07:57:50;;;;;;;2.00;0.83;;;24.30;51.00;;;;;;5063829;28;20665;-66
2023/03/29 08:00:18;;;;;;;2.40;0.97;;;24.30;51.70;;;;;;5062950;28;20279;-78
2023/03/29 08:02:54;;;;;;;1.97;1.00;;;24.20;52.40;;;;;;5076337;28;20191;-78
2023/03/29 08:05:22;;;;;;;1.10;0.80;;;24.10;52.80;;;;;;5071503;28;20261;-77
2023/03/29 08:07:49;;;;;;;2.90;1.23;;;24.00;52.90;;;;;;5072329;28;20253;-79
2023/03/29 08:10:19;;;;;;;1.40;0.80;;;23.90;53.20;;;;;;5072863;28;20697;-79
2023/03/29 08:12:48;;;;;;;2.27;0.80;;;23.90;53.00;;;;;;5072858;28;20179;-77
2023/03/29 08:15:16;;;;;;;3.23;1.00;;;23.90;53.40;;;;;;5069917;28;20198;-79
2023/03/29 08:17:43;;;;;;;2.23;1.27;;;23.80;53.70;;;;;;5071851;28;20183;-76
2023/03/29 08:20:15;;;;;;;2.57;1.27;;;23.80;54.10;;;;;;5073419;28;20204;-80
2023/03/29 08:22:43;;;;;;;2.00;1.30;;;23.70;54.60;;;;;;5072755;28;20183;-77
2023/03/29 08:25:11;;;;;;;5.70;1.43;;;23.60;55.10;;;;;;5072662;28;20594;-77
2023/03/29 08:27:39;;;;;;;2.57;1.60;;;23.50;55.80;;;;;;5068869;28;20179;-77
2023/03/29 08:30:09;;;;;;;1.37;1.27;;;23.40;56.20;;;;;;5067065;28;21182;-80
2023/03/29 08:32:37;;;;;;;6.90;2.37;;;23.30;56.80;;;;;;5096028;28;20187;-70
2023/03/29 08:35:08;;;;;;;4.27;2.57;;;23.30;57.10;;;;;;5065404;28;20186;-68
2023/03/29 08:37:37;;;;;;;2.23;1.57;;;23.20;57.70;;;;;;5068554;28;20198;-65
2023/03/29 08:40:06;;;;;;;2.10;1.37;;;23.10;58.10;;;;;;5070974;28;20329;-66
2023/03/29 08:43:11;;;;;;;2.97;2.17;;;23.10;58.20;;;;;;5069336;28;20392;-66
2023/03/29 08:46:06;;;;;;;2.83;2.07;;;23.00;58.80;;;;;;5031680;28;20225;-65
2023/03/29 08:48:50;;;;;;;5.70;2.07;;;22.90;59.30;;;;;;5063479;28;20207;-67
2023/03/29 08:51:33;;;;;;;6.20;2.90;;;22.80;59.70;;;;;;5063629;28;20199;-66
2023/03/29 08:54:06;;;;;;;3.20;1.83;;;22.80;60.60;;;;;;5071233;28;20202;-65
2023/03/29 08:56:38;;;;;;;1.53;1.23;;;22.70;60.60;;;;;;5070227;28;20188;-66
2023/03/29 08:59:21;;;;;;;3.17;1.80;;;22.70;60.80;;;;;;5079490;28;20678;-67
2023/03/29 09:01:52;;;;;;;2.93;1.43;;;22.70;60.60;;;;;;5079426;28;20651;-66
2023/03/29 09:04:28;;;;;;;1.70;1.60;;;22.60;61.10;;;;;;5076687;28;20178;-66
2023/03/29 09:06:56;;;;;;;1.97;1.50;;;22.50;61.10;;;;;;5079231;28;20190;-67
2023/03/29 09:09:36;;;;;;;4.37;1.47;;;22.50;61.50;;;;;;5074110;28;20214;-67
2023/03/29 09:12:10;;;;;;;1.80;1.30;;;22.40;61.70;;;;;;5075360;28;20187;-68
2023/03/29 09:14:54;;;;;;;1.73;1.03;;;22.30;61.40;;;;;;5078191;28;20197;-65
2023/03/29 09:18:08;;;;;;;3.43;1.60;;;22.30;61.90;;;;;;5072458;28;20641;-65
2023/03/29 09:20:38;;;;;;;2.30;0.97;;;22.30;61.90;;;;;;5052739;28;20202;-67
2023/03/29 09:23:40;;;;;;;1.40;0.83;;;22.40;60.70;;;;;;5076354;28;20194;-66
2023/03/29 09:26:41;;;;;;;1.37;1.10;;;22.50;60.70;;;;;;5051006;28;20367;-66
2023/03/29 09:29:46;;;;;;;1.30;1.00;;;22.50;60.50;;;;;;5060274;28;20278;-68
2023/03/29 09:32:22;;;;;;;1.23;0.80;;;22.50;60.40;;;;;;5076705;28;20257;-64
2023/03/29 09:35:23;;;;;;;0.77;0.70;;;22.40;60.70;;;;;;5071957;28;20194;-65
2023/03/29 09:37:52;;;;;;;3.53;0.93;;;22.50;60.60;;;;;;5057675;28;20182;-65
2023/03/29 09:40:25;;;;;;;1.20;0.90;;;22.40;60.80;;;;;;5074514;28;20179;-69
2023/03/29 09:42:55;;;;;;;2.00;0.90;;;22.40;60.70;;;;;;5080000;28;20190;-66
2023/03/29 09:45:22;;;;;;;3.20;1.30;;;22.40;60.70;;;;;;5071171;28;20184;-67
2023/03/29 09:48:02;;;;;;;1.27;1.00;;;22.40;60.50;;;;;;5071365;28;20578;-67
2023/03/29 09:50:40;;;;;;;1.97;0.90;;;22.30;60.50;;;;;;5073607;28;20640;-65
2023/03/29 09:53:08;;;;;;;1.53;1.00;;;22.30;60.50;;;;;;5075337;28;20186;-66
2023/03/29 09:55:38;;;;;;;1.33;0.93;;;22.30;60.30;;;;;;5065347;28;20180;-64
2023/03/29 09:58:26;;;;;;;1.63;1.00;;;22.30;60.50;;;;;;5082658;28;20235;-70
2023/03/29 10:00:58;;;;;;;1.53;1.03;;;22.20;60.20;;;;;;5076789;28;20541;-66
2023/03/29 10:03:28;;;;;;;1.90;1.27;;;22.30;60.40;;;;;;5077625;28;20183;-68
2023/03/29 10:06:01;;;;;;;2.03;0.90;;;22.20;60.40;;;;;;5073845;28;20266;-66
2023/03/29 10:08:35;;;;;;;1.17;1.07;;;22.10;60.80;;;;;;5074782;28;20645;-64
2023/03/29 10:11:16;;;;;;;1.90;1.00;;;22.10;60.50;;;;;;5078667;28;20242;-66
2023/03/29 10:13:49;;;;;;;1.80;0.97;;;22.10;60.30;;;;;;5076898;28;20178;-65
2023/03/29 10:16:24;;;;;;;1.10;1.00;;;22.10;59.90;;;;;;5064983;28;20342;-64
2023/03/29 10:18:53;;;;;;;1.30;0.87;;;22.10;59.50;;;;;;5073403;28;20175;-65
2023/03/29 10:21:22;;;;;;;1.30;0.90;;;22.10;59.80;;;;;;5060741;28;20228;-72
2023/03/29 10:23:57;;;;;;;0.93;0.87;;;22.10;59.90;;;;;;5063712;28;20180;-68
2023/03/29 10:26:32;;;;;;;1.50;0.80;;;22.00;59.70;;;;;;5086052;28;20179;-70
2023/03/29 10:29:05;;;;;;;4.57;1.43;;;22.00;59.80;;;;;;5075763;28;20175;-64
2023/03/29 10:31:32;;;;;;;1.53;0.80;;;22.00;59.20;;;;;;5078093;28;20242;-66
2023/03/29 10:34:05;;;;;;;1.17;1.00;;;22.00;58.00;;;;;;5079053;28;20232;-65
2023/03/29 10:36:33;;;;;;;1.43;0.90;;;22.10;56.80;;;;;;5066392;28;20183;-65
2023/03/29 10:39:03;;;;;;;2.30;0.70;;;22.20;57.10;;;;;;5074596;28;20172;-68
2023/03/29 10:41:34;;;;;;;1.13;0.80;;;22.10;57.10;;;;;;5078504;28;20186;-64
2023/03/29 10:44:02;;;;;;;2.53;0.80;;;22.10;56.90;;;;;;5084355;28;20273;-67
2023/03/29 10:46:41;;;;;;;1.23;0.80;;;22.10;56.50;;;;;;5063699;28;20634;-65
2023/03/29 10:49:23;;;;;;;1.37;0.80;;;22.10;56.20;;;;;;5060869;28;20213;-67
2023/03/29 10:51:52;;;;;;;0.90;0.80;;;22.10;56.20;;;;;;5074757;28;20230;-68
2023/03/29 10:54:23;;;;;;;1.77;0.80;;;22.00;55.90;;;;;;5069436;28;20180;-67
2023/03/29 10:56:55;;;;;;;2.57;0.90;;;22.00;55.80;;;;;;5071656;28;20193;-66
2023/03/29 10:59:46;;;;;;;1.63;0.80;;;21.90;56.90;;;;;;5074301;28;20288;-67
2023/03/29 11:02:13;;;;;;;2.97;0.93;;;21.80;57.30;;;;;;5071032;28;20183;-67
2023/03/29 11:04:51;;;;;;;2.33;1.30;;;21.80;57.70;;;;;;5069692;28;20182;-66
2023/03/29 11:07:32;;;;;;;0.90;0.90;;;21.70;58.00;;;;;;5073172;28;20734;-68
2023/03/29 11:10:32;;;;;;;1.00;0.90;;;21.70;57.10;;;;;;5058816;28;20269;-70
2023/03/29 11:13:18;;;;;;;2.17;1.20;;;21.70;57.70;;;;;;5069542;28;20180;-69
2023/03/29 11:16:03;;;;;;;2.10;0.87;;;21.70;57.70;;;;;;5078222;28;20270;-71
2023/03/29 11:19:07;;;;;;;2.40;0.70;;;21.60;57.80;;;;;;5063231;28;20172;-67
2023/03/29 11:21:39;;;;;;;1.00;0.90;;;21.50;57.50;;;;;;5053419;28;20183;-66
2023/03/29 11:24:21;;;;;;;1.40;0.87;;;21.40;58.40;;;;;;5067620;28;20189;-67
2023/03/29 11:27:15;;;;;;;1.23;0.80;;;21.30;58.30;;;;;;5076116;28;20178;-65
2023/03/29 11:30:23;;;;;;;1.03;0.70;;;21.30;58.50;;;;;;5071142;28;20176;-69
2023/03/29 11:33:06;;;;;;;2.00;1.00;;;21.30;58.50;;;;;;5052881;28;20188;-66
2023/03/29 11:35:48;;;;;;;1.40;0.90;;;21.30;58.40;;;;;;5073273;28;20637;-68
2023/03/29 11:38:31;;;;;;;1.77;0.87;;;21.30;57.30;;;;;;5082650;28;20551;-66
2023/03/29 11:41:09;;;;;;;2.20;0.70;;;21.30;57.40;;;;;;5064784;28;20179;-66
2023/03/29 11:44:00;;;;;;;0.60;0.60;;;21.30;57.50;;;;;;5074157;28;20607;-66
2023/03/29 11:46:40;;;;;;;2.50;0.77;;;21.20;57.50;;;;;;5073171;28;20683;-66
2023/03/29 11:49:24;;;;;;;1.17;0.80;;;21.20;57.50;;;;;;5072772;28;20676;-66
2023/03/29 11:52:16;;;;;;;3.07;0.70;;;21.10;58.20;;;;;;5085828;28;20214;-64
2023/03/29 11:54:56;;;;;;;1.93;0.90;;;21.10;58.10;;;;;;5075624;28;20180;-65
2023/03/29 11:57:41;;;;;;;0.93;0.60;;;21.10;57.80;;;;;;5060294;28;20217;-65
2023/03/29 12:00:18;;;;;;;1.07;0.70;;;21.10;58.00;;;;;;5084886;28;20182;-65
2023/03/29 12:03:19;;;;;;;0.60;0.60;;;21.00;57.90;;;;;;5085176;28;20257;-66
2023/03/29 12:05:56;;;;;;;1.20;0.90;;;21.00;58.00;;;;;;5065742;28;20545;-65
2023/03/29 12:08:49;;;;;;;0.90;0.70;;;20.90;58.60;;;;;;5072768;28;20222;-67
2023/03/29 12:11:43;;;;;;;1.67;0.80;;;20.80;58.80;;;;;;5048274;28;20671;-67
2023/03/29 12:14:48;;;;;;;1.33;0.83;;;20.80;59.10;;;;;;5038880;28;20201;-66
2023/03/29 12:17:24;;;;;;;0.93;0.80;;;20.80;59.70;;;;;;5072850;28;20227;-65
2023/03/29 12:20:12;;;;;;;3.30;0.80;;;20.70;60.50;;;;;;5106117;28;20640;-65
2023/03/29 12:22:40;;;;;;;1.70;0.90;;;20.50;61.80;;;;;;5075685;28;20841;-70
2023/03/29 12:25:12;;;;;;;0.90;0.60;;;20.40;62.50;;;;;;5080065;28;20270;-66
2023/03/29 12:27:51;;;;;;;1.03;0.70;;;20.30;62.20;;;;;;5075353;28;20186;-67
2023/03/29 12:30:27;;;;;;;1.17;0.90;;;20.30;62.80;;;;;;5076693;28;20286;-65
2023/03/29 12:33:28;;;;;;;1.10;0.90;;;20.20;61.70;;;;;;5078020;28;20195;-66
2023/03/29 12:36:13;;;;;;;2.07;0.90;;;20.20;62.50;;;;;;5058847;28;20560;-66
2023/03/29 12:38:44;;;;;;;1.80;1.00;;;20.10;62.80;;;;;;5071274;28;20182;-65
2023/03/29 12:41:20;;;;;;;1.20;0.77;;;20.20;62.30;;;;;;5072545;28;20278;-66
2023/03/29 12:43:48;;;;;;;2.00;0.90;;;20.10;62.30;;;;;;5072370;28;20175;-67
2023/03/29 12:46:22;;;;;;;1.00;0.80;;;20.00;63.10;;;;;;5072523;28;20270;-67
2023/03/29 12:49:10;;;;;;;2.10;0.90;;;20.00;64.10;;;;;;5082586;28;20197;-66
2023/03/29 12:51:41;;;;;;;1.90;1.10;;;19.90;64.00;;;;;;5072876;28;20655;-66
2023/03/29 12:54:19;;;;;;;1.93;1.00;;;19.80;64.80;;;;;;5079984;28;20703;-65
2023/03/29 12:56:53;;;;;;;2.90;0.87;;;19.80;64.50;;;;;;5077293;28;20676;-68
2023/03/29 12:59:45;;;;;;;3.13;1.20;;;19.70;65.00;;;;;;5071556;28;20652;-67
2023/03/29 13:02:16;;;;;;;3.00;1.30;;;19.60;65.80;;;;;;5072926;28;20190;-70
2023/03/29 13:04:57;;;;;;;0.83;0.83;;;19.60;66.00;;;;;;5074137;28;20172;-68
2023/03/29 13:07:27;;;;;;;2.57;1.27;;;19.60;66.60;;;;;;5071429;28;20218;-68
2023/03/29 13:10:08;;;;;;;3.43;1.00;;;19.50;66.50;;;;;;5071052;28;20187;-69
2023/03/29 13:12:41;;;;;;;2.40;0.87;;;19.50;66.60;;;;;;5075942;28;20601;-67
2023/03/29 13:15:24;;;;;;;2.67;0.97;;;19.50;67.10;;;;;;5067349;28;20186;-65
2023/03/29 13:18:05;;;;;;;3.33;1.13;;;19.40;67.40;;;;;;5070775;28;20232;-68
2023/03/29 13:20:55;;;;;;;0.90;0.80;;;19.40;67.60;;;;;;5064862;28;20665;-67
2023/03/29 13:23:48;;;;;;;1.47;0.90;;;19.30;68.40;;;;;;5065682;28;20170;-66